Alanson, Michigan
Current Conditions -  °F | °C
As of 10:34 PM on Saturday 24 Jan 2015 (Local Time) from KMGN Reporting Station
Clear Clear  
Wind Chill:   Ceiling: Unl
Heat Index: 18°   Visibility: 10mi
Dew Point: 11°   Wind: 6mph
Humidity: 74%   Direction: 10°N
Pressure: 29.72"   Gusts: NA
Location:  45.44°N, 84.79°W
Report Text: KMGN 250334Z AUTO 01005KT 10SM CLR M08/M12 A2972 RMK AO2 T10801119
Loading
Personal Weather Stations






























Interactive Weather Map New forecast layout! Learn more

10-Day Weather Forecast

Advertisements
Track Severe Weather on mobile